Portada
METAR-TAF:

METAR-TAF

Aeropuertos :

Abu Musa, Irán

latitud: 25-52-33N, longitud: 055-02-01E, altitud: 7 m

Observación

El informe se hizo hace 23 minutos, a las 12:00 UTC
Viento 8 kt del oeste-noroeste
Temperatura 24°C
Humedad 54%
Presión 1014 hPa
Visibilidad: 6000 m

METAR: OIBA 201200Z 30008KT 6000 NSC 24/14 Q1014

Hora: 15:53 (12:23 UTC)


TAF: falta

Observaciones y pronósticos meteorológicos de más de 4000 aeropuertos (mensajes METAR y TAF).

Los puntos amarillos y rojos representan las estaciones disponibles.

Ponga el ratón en el punto deseado para ver el nombre de la estación.

Haga clic para ver las observaciones y los pronósticos meteorológicos.

Para cambiar el mapa : haga clic en los botones verdes con una cruz de color negro para hacer un zoom, en el botón verde con un guión para alejar o en las flechas verdes para mapas adyacentes.


METAR-TAF: